M I D A S
Marine Information and Data Acquisition System
Tripno 1341 of the Zeeleeuw from 2007-04-04 06:48:28 to 2007-04-04 10:23:54
Back to CruiseResearch ActivitiesStationsMapUnderway DataData graphs

EquipmentUnitsComment
TimeDGPSUTC
LatitudeDGPSDM.mWGS84
LongitudeDGPSDM.mWGS84
HeadingGyrodeg 
SOGDGPSknotsSpeed over ground
COGDGPSdegCourse over ground
DepthEcho soundermeters200 kHz
Missing or incorrect values are displayed as -999
Navigation data collected by the RV Zeeleeuw from 2007-04-04 06:29:56 to 2007-04-04 15:23:51
Time Latitude Longitude Heading SOG COG Depth
2007-04-04 06:31:00 51°13.619 2°56.036 117.5 4.2 295 -999
2007-04-04 06:32:00 51°13.649 2°55.922 120.1 4.9 296 -999
2007-04-04 06:33:00 51°13.686 2°55.815 121.6 4 298 9.1
2007-04-04 06:34:00 51°13.707 2°55.733 113.8 2.6 287 11.4
2007-04-04 06:35:00 51°13.712 2°55.713 85.3 0.8 73 10.6
2007-04-04 06:36:00 51°13.712 2°55.719 52.7 1.3 226 11
2007-04-04 06:37:00 51°13.725 2°55.715 12.3 2.7 353 10.3
2007-04-04 06:38:00 51°13.791 2°55.669 338.2 6 334 9.7
2007-04-04 06:39:00 51°13.9 2°55.588 339.6 7.9 334 9.7
2007-04-04 06:40:00 51°14.023 2°55.498 341.1 8.3 336 9.7
2007-04-04 06:41:00 51°14.146 2°55.401 336.4 8.2 328 9.8
2007-04-04 06:42:00 51°14.254 2°55.262 320.7 8.4 315 9
2007-04-04 06:43:00 51°14.361 2°55.07 315.5 11.2 309 9.2
2007-04-04 06:44:00 51°14.501 2°54.824 324.7 13.1 316 8.5
2007-04-04 06:45:00 51°14.661 2°54.588 327.9 13.2 317 7.8
2007-04-04 06:46:00 51°14.825 2°54.355 332.3 12.9 321 7.5
2007-04-04 06:47:00 51°14.987 2°54.132 328.6 12.7 319 7
2007-04-04 06:48:00 51°15.166 2°53.957 341.9 12.8 330 7.4
2007-04-04 06:49:00 51°15.347 2°53.775 340.3 13 329 8.3
2007-04-04 06:50:00 51°15.534 2°53.598 342.5 13.2 331 8.8
2007-04-04 06:51:00 51°15.727 2°53.431 342.8 13.2 330 9.1
2007-04-04 06:52:00 51°15.919 2°53.264 345.4 12.9 335 9.7
2007-04-04 06:53:00 51°16.112 2°53.127 348.4 12.7 336 10.1
2007-04-04 06:54:00 51°16.305 2°52.99 348.9 12.8 335 10.2
2007-04-04 06:55:00 51°16.498 2°52.853 349.1 12.7 336 10.1
2007-04-04 06:56:00 51°16.696 2°52.729 350.2 12.7 340 9.1
2007-04-04 06:57:00 51°16.89 2°52.617 349.1 12.2 341 8.3
2007-04-04 06:58:00 51°17.083 2°52.502 348.8 12.6 340 8.2
2007-04-04 06:59:00 51°17.277 2°52.385 349 12.5 340 8.7
2007-04-04 07:00:00 51°17.468 2°52.247 342.6 12.6 333 8.9
2007-04-04 07:01:00 51°17.652 2°52.081 343.9 12.8 331 8.9
2007-04-04 07:02:00 51°17.837 2°51.907 340.9 13 328 8.7
2007-04-04 07:03:00 51°18.022 2°51.731 340.5 13 329 8.7
2007-04-04 07:04:00 51°18.211 2°51.552 341.8 13.2 328 9.9
2007-04-04 07:05:00 51°18.388 2°51.341 328.2 13.5 313 10.9
2007-04-04 07:06:00 51°18.531 2°51.064 312.6 13.8 300 12.6
2007-04-04 07:07:00 51°18.621 2°50.715 300.8 14.3 291 12.9
2007-04-04 07:08:00 51°18.705 2°50.362 301.2 14.4 288 13
2007-04-04 07:09:00 51°18.784 2°50.008 297.7 14.3 291 11.3
2007-04-04 07:10:00 51°18.849 2°49.646 294.4 14.2 285 9.5
2007-04-04 07:11:00 51°18.916 2°49.283 297.5 14.4 288 10
2007-04-04 07:12:00 51°18.992 2°48.923 294.6 14.4 291 11.1
2007-04-04 07:13:00 51°19.063 2°48.554 292 14.4 286 12.7
2007-04-04 07:14:00 51°19.129 2°48.188 295.8 14.5 286 16
2007-04-04 07:15:00 51°19.199 2°47.819 297.6 14.5 286 17.4
2007-04-04 07:16:00 51°19.267 2°47.448 295.9 14.4 287 20
2007-04-04 07:17:00 51°19.335 2°47.073 296.5 14.7 285 20
2007-04-04 07:18:00 51°19.401 2°46.698 295.7 14.7 285 19.3
2007-04-04 07:19:00 51°19.471 2°46.326 298 14.6 287 17.6
2007-04-04 07:20:00 51°19.538 2°45.958 295.4 14.6 282 14.4
2007-04-04 07:21:00 51°19.607 2°45.59 296.8 14.5 287 9.9
2007-04-04 07:22:00 51°19.679 2°45.222 294.4 14.7 288 14.7
2007-04-04 07:23:00 51°19.749 2°44.856 297 14.1 284 20
2007-04-04 07:24:00 51°19.819 2°44.487 296 14.7 286 21.8
2007-04-04 07:25:00 51°19.888 2°44.117 295.1 14.6 284 23.6
2007-04-04 07:26:00 51°19.959 2°43.743 297.1 14.8 287 25.5
2007-04-04 07:27:00 51°20.03 2°43.37 296.1 14.8 286 25
2007-04-04 07:28:00 51°20.098 2°42.996 295.2 14.6 287 24.8
2007-04-04 07:29:00 51°20.166 2°42.625 296.1 14.4 288 22.7
2007-04-04 07:30:00 51°20.241 2°42.259 296.8 14.3 291 20
2007-04-04 07:31:00 51°20.307 2°41.889 293.8 14.5 287 14.9
2007-04-04 07:32:00 51°20.382 2°41.517 298.6 14.7 286 20.3
2007-04-04 07:33:00 51°20.452 2°41.143 297 14.7 284 24
2007-04-04 07:34:00 51°20.525 2°40.77 295.2 14.8 287 26
2007-04-04 07:35:00 51°20.596 2°40.398 293.7 14.7 288 24.8
2007-04-04 07:36:00 51°20.691 2°40.05 315.5 14.1 307 26
2007-04-04 07:37:00 51°20.871 2°39.855 353.7 12.5 345 25
2007-04-04 07:38:00 51°21.071 2°39.851 17.4 11.7 4 24.6
2007-04-04 07:39:00 51°21.256 2°39.861 13.3 11.6 1 24.5
2007-04-04 07:40:00 51°21.452 2°39.857 11.6 11.7 359 25.6
2007-04-04 07:41:00 51°21.65 2°39.854 11.6 11.6 358 25.2
2007-04-04 07:42:00 51°21.843 2°39.84 11 11.5 358 26.6
2007-04-04 07:43:00 51°22.038 2°39.826 9.8 11.5 357 27.3
2007-04-04 07:44:00 51°22.228 2°39.801 5.3 11.9 347 28.4
2007-04-04 07:45:00 51°22.387 2°39.585 315.2 13.8 299 27.4
2007-04-04 07:46:00 51°22.436 2°39.212 282.8 14.7 278 28.9
2007-04-04 07:47:00 51°22.483 2°38.833 293.9 14.4 278 28.6
2007-04-04 07:48:00 51°22.548 2°38.457 298.5 14.7 287 29.2
2007-04-04 07:49:00 51°22.639 2°38.099 303.9 14.4 294 27.9
2007-04-04 07:50:00 51°22.736 2°37.744 304.5 14.2 298 27.8
2007-04-04 07:51:00 51°22.831 2°37.394 304.1 14.4 288 27.2
2007-04-04 07:52:00 51°22.921 2°37.042 303.3 14.8 291 26.8
2007-04-04 07:53:00 51°23.014 2°36.691 300.7 14.3 300 23.8
2007-04-04 07:54:00 51°23.11 2°36.344 304.8 14.4 293 22.7
2007-04-04 07:55:00 51°23.203 2°35.992 303.3 14.2 296 23.3
2007-04-04 07:56:00 51°23.297 2°35.648 304.3 14 295 23.8
2007-04-04 07:57:00 51°23.388 2°35.306 305.8 14.2 292 30.7
2007-04-04 07:58:00 51°23.476 2°34.959 304.8 13.8 293 30.4
2007-04-04 07:59:00 51°23.569 2°34.62 307.9 13.5 304 33.1
2007-04-04 08:00:00 51°23.726 2°34.382 344.8 12.5 334 32.3
2007-04-04 08:01:00 51°23.918 2°34.314 8.7 11.5 358 31.7
2007-04-04 08:02:00 51°24.107 2°34.291 9.1 11.4 354 30.5
2007-04-04 08:03:00 51°24.293 2°34.262 7.8 11.6 355 30.2
2007-04-04 08:04:00 51°24.486 2°34.229 7 11.3 351 30.5
2007-04-04 08:05:00 51°24.671 2°34.192 6.5 11.5 353 30.5
2007-04-04 08:06:00 51°24.859 2°34.156 6.7 11.7 354 30.4
2007-04-04 08:07:00 51°25.053 2°34.121 6.5 11.6 352 29.2
2007-04-04 08:08:00 51°25.239 2°34.097 9.4 11.2 355 28.3
2007-04-04 08:09:00 51°25.431 2°34.084 10.3 11.3 -999 27.8
2007-04-04 08:10:00 51°25.624 2°34.069 8.9 11.7 357 23.5
2007-04-04 08:11:00 51°25.815 2°34.049 7.2 11.4 356 19.2
2007-04-04 08:12:00 51°26.007 2°34.017 6.5 11.5 353 18
2007-04-04 08:13:00 51°26.196 2°34.018 13 11.5 1 20.5
2007-04-04 08:14:00 51°26.387 2°34.028 13 11.7 2 24.3
2007-04-04 08:15:00 51°26.578 2°34.038 13 11.5 2 28.4
2007-04-04 08:16:00 51°26.769 2°34.043 10.9 11.6 3 30.7
2007-04-04 08:17:00 51°26.962 2°34.053 13 11.3 2 31.9
2007-04-04 08:18:00 51°27.153 2°34.061 13 11 359 30.2
2007-04-04 08:19:00 51°27.336 2°34.064 13.2 11.1 2 31
2007-04-04 08:20:00 51°27.523 2°34.069 13.6 10.8 1 30.8
2007-04-04 08:21:00 51°27.702 2°34.066 11.8 11.4 -999 34.3
2007-04-04 08:22:00 51°27.884 2°34.061 10.1 10.4 359 -999
2007-04-04 08:23:00 51°28.068 2°34.067 13 11.1 359 37.1
2007-04-04 08:24:00 51°28.251 2°34.066 12.2 10.5 358 37.6
2007-04-04 08:25:00 51°28.435 2°34.071 11.6 11.7 -999 38.2
2007-04-04 08:26:00 51°28.622 2°34.074 12.3 11.5 357 34.8
2007-04-04 08:27:00 51°28.801 2°34.078 12.5 10.6 1 34.8
2007-04-04 08:28:00 51°28.983 2°34.059 5.4 11 357 35.7
2007-04-04 08:29:00 51°29.165 2°33.99 354.9 10.7 343 -999
2007-04-04 08:30:00 51°29.345 2°33.904 355.6 11.7 344 31.3
2007-04-04 08:31:00 51°29.529 2°33.815 356.3 11.8 342 18
2007-04-04 08:32:00 51°29.704 2°33.677 340.2 12.1 321 12.8
2007-04-04 08:33:00 51°29.876 2°33.479 341.2 12.3 327 -999
2007-04-04 08:34:00 51°30.047 2°33.291 341.4 12.8 323 18
2007-04-04 08:35:00 51°30.227 2°33.115 341.6 12.4 327 19.7
2007-04-04 08:36:00 51°30.398 2°32.942 339.7 12.5 328 22
2007-04-04 08:37:00 51°30.572 2°32.771 340.3 12.5 330 27.1
2007-04-04 08:38:00 51°30.748 2°32.601 341.4 12.4 328 31.3
2007-04-04 08:39:00 51°30.921 2°32.433 340.5 12.1 330 34.9
2007-04-04 08:40:00 51°31.095 2°32.256 341.5 12.6 326 33.8
2007-04-04 08:41:00 51°31.242 2°32.096 341.7 7.3 319 34.1
2007-04-04 08:42:00 51°31.322 2°31.985 342.3 7.7 323 36.1
2007-04-04 08:43:00 51°31.41 2°31.947 42.3 3.9 46 35
2007-04-04 08:44:00 51°31.464 2°31.99 23.8 3.6 17 35.8
2007-04-04 08:45:00 51°31.523 2°32.054 33.9 4.6 21 35
2007-04-04 08:46:00 51°31.585 2°32.134 40.1 4.7 30 34.8
2007-04-04 08:47:00 51°31.65 2°32.217 46.7 5.2 42 35.5
2007-04-04 08:48:00 51°31.705 2°32.301 49.1 4.5 47 4.6
2007-04-04 08:49:00 51°31.749 2°32.398 56.5 3.6 59 35.5
2007-04-04 08:50:00 51°31.753 2°32.445 74.7 1.2 145 34.6
2007-04-04 08:51:00 51°31.724 2°32.434 87.1 2.7 209 34.4
2007-04-04 08:52:00 51°31.686 2°32.392 111.5 3 217 33.9
2007-04-04 08:53:00 51°31.649 2°32.339 137.3 2.9 224 35.2
2007-04-04 08:54:00 51°31.614 2°32.287 144 2.8 219 34.9
2007-04-04 08:55:00 51°31.578 2°32.235 147.6 3.3 224 35.3
2007-04-04 08:56:00 51°31.542 2°32.188 141.7 3.1 219 35.8
2007-04-04 08:57:00 51°31.501 2°32.149 134.2 2.9 193 35
2007-04-04 08:58:00 51°31.468 2°32.176 72 1.6 93 35.6
2007-04-04 08:59:00 51°31.525 2°32.161 3.9 7.3 349 35.3
2007-04-04 09:00:00 51°31.679 2°32.186 23.2 10.4 14 35.6
2007-04-04 09:01:00 51°31.842 2°32.296 36.5 10.7 33 34.1
2007-04-04 09:02:00 51°32 2°32.43 34.2 10.9 26 34.7
2007-04-04 09:03:00 51°32.156 2°32.558 33.7 10.7 26 34.3
2007-04-04 09:04:00 51°32.312 2°32.688 34.6 10.6 32 34.2
2007-04-04 09:05:00 51°32.461 2°32.847 40.4 10.5 32 34
2007-04-04 09:06:00 51°32.574 2°33.04 69.4 8.9 69 34.9
2007-04-04 09:07:00 51°32.632 2°33.167 60.4 4.5 71 33.9
2007-04-04 09:08:00 51°32.656 2°33.214 35.5 1.3 37 34.5
2007-04-04 09:09:00 51°32.666 2°33.264 52.3 2.1 45 34.3
2007-04-04 09:10:00 51°32.696 2°33.283 48 0.4 45 32.8
2007-04-04 09:11:00 51°32.685 2°33.277 59.4 1 214 33.9
2007-04-04 09:12:00 51°32.669 2°33.261 51.5 1.3 209 34
2007-04-04 09:13:00 51°32.652 2°33.239 45.7 1.5 217 33.5
2007-04-04 09:14:00 51°32.633 2°33.21 40.8 1.3 233 34.1
2007-04-04 09:15:00 51°32.617 2°33.184 47.9 1.2 210 33.6
2007-04-04 09:16:00 51°32.597 2°33.166 62.8 1.5 196 33.8
2007-04-04 09:17:00 51°32.571 2°33.156 81 1.8 183 34.9
2007-04-04 09:18:00 51°32.546 2°33.157 72.5 1 154 34.8
2007-04-04 09:19:00 51°32.577 2°33.164 20 5.8 13 34.9
2007-04-04 09:20:00 51°32.703 2°33.24 25.3 10.3 17 33.6
2007-04-04 09:21:00 51°32.864 2°33.313 23.2 9.3 18 3.4
2007-04-04 09:22:00 51°33.017 2°33.398 27.6 10 20 32.1
2007-04-04 09:23:00 51°33.176 2°33.504 29.7 10.6 24 33.3
2007-04-04 09:24:00 51°33.325 2°33.638 38.4 8.8 35 31.9
2007-04-04 09:25:00 51°33.411 2°33.742 34.9 5.3 43 32.7
2007-04-04 09:26:00 51°33.454 2°33.837 41.4 3.8 45 30.5
2007-04-04 09:27:00 51°33.472 2°33.923 50.1 2.5 48 26.5
2007-04-04 09:28:00 51°33.509 2°33.907 7 2.9 349 30.6
2007-04-04 09:29:00 51°33.521 2°33.93 67.7 1 144 30.3
2007-04-04 09:30:00 51°33.499 2°33.929 74 1.8 194 31.3
2007-04-04 09:31:00 51°33.471 2°33.9 74 2.4 215 28.5
2007-04-04 09:32:00 51°33.438 2°33.856 78 2.8 220 30.5
2007-04-04 09:33:00 51°33.404 2°33.799 99.9 2.7 236 33.2
2007-04-04 09:34:00 51°33.372 2°33.781 91.1 2.1 136 32.2
2007-04-04 09:35:00 51°33.398 2°33.809 23.4 4.9 10 33
2007-04-04 09:36:00 51°33.504 2°33.863 28.8 7.6 18 26.2
2007-04-04 09:37:00 51°33.634 2°33.916 20.3 8.4 10 29.1
2007-04-04 09:38:00 51°33.793 2°33.946 16.8 10.5 3 30.8
2007-04-04 09:39:00 51°33.964 2°33.976 16.5 10.2 5 30.6
2007-04-04 09:40:01 51°34.129 2°34.004 16.1 8 4 -999
2007-04-04 09:41:00 51°34.22 2°34.079 31.7 5.1 20 33.5
2007-04-04 09:42:00 51°34.287 2°34.141 28.1 4.7 22 33.6
2007-04-04 09:43:00 51°34.344 2°34.2 16.3 3 351 34.8
2007-04-04 09:44:00 51°34.369 2°34.204 58.4 1.2 82 34.6
2007-04-04 09:45:00 51°34.353 2°34.212 81.8 1.6 192 33.9
2007-04-04 09:46:00 51°34.32 2°34.19 99.6 2.2 210 33.8
2007-04-04 09:47:00 51°34.284 2°34.15 111 3.1 218 33.9
2007-04-04 09:48:00 51°34.243 2°34.105 139.7 3.4 199 33.6
2007-04-04 09:49:00 51°34.164 2°34.054 209.1 6.8 222 32.7
2007-04-04 09:50:00 51°34.066 2°33.844 238.6 13.5 231 33.8
2007-04-04 09:51:00 51°33.906 2°33.529 233.1 15.9 228 34.1
2007-04-04 09:52:00 51°33.74 2°33.203 237.4 15.8 230 33.4
2007-04-04 09:53:00 51°33.585 2°32.878 234.4 14.8 241 34
2007-04-04 09:54:00 51°33.462 2°32.53 247.2 14.9 241 30
2007-04-04 09:55:00 51°33.341 2°32.186 245.7 15.3 240 28.7
2007-04-04 09:56:00 51°33.275 2°31.892 290.7 7.8 279 28.1
2007-04-04 09:57:00 51°33.334 2°31.821 21.6 3.4 16 26.9
2007-04-04 09:58:00 51°33.382 2°31.884 35.1 5.7 29 26.8
2007-04-04 09:59:00 51°33.46 2°31.981 34 5.8 30 25.4
2007-04-04 10:00:00 51°33.488 2°32.07 57.2 2.2 60 26.3
2007-04-04 10:01:00 51°33.491 2°32.088 63.1 0.6 159 25.4
2007-04-04 10:02:00 51°33.475 2°32.076 69.9 1.3 225 25.9
2007-04-04 10:03:01 51°33.459 2°32.069 55.6 0.9 41 27
2007-04-04 10:04:00 51°33.528 2°32.066 14.3 7.9 4 26
2007-04-04 10:05:01 51°33.688 2°32.13 27.9 10.6 20 28
2007-04-04 10:06:00 51°33.856 2°32.226 27.6 11.4 21 27.2
2007-04-04 10:07:00 51°34.029 2°32.327 28.5 11 21 27
2007-04-04 10:08:01 51°34.17 2°32.451 53.6 7.7 49 24
2007-04-04 10:09:00 51°34.239 2°32.517 44.8 3.8 42 25.2
2007-04-04 10:10:01 51°34.299 2°32.585 38.1 4.7 36 26.7
2007-04-04 10:11:00 51°34.338 2°32.641 42.2 1.4 35 23.6
2007-04-04 10:12:00 51°34.342 2°32.65 58.9 0.5 215 24.8
2007-04-04 10:13:00 51°34.326 2°32.637 64.2 1.4 212 23.7
2007-04-04 10:14:00 51°34.304 2°32.614 70.1 1.7 216 25.5
2007-04-04 10:15:00 51°34.293 2°32.602 37.6 0.7 353 26.4
2007-04-04 10:16:00 51°34.366 2°32.623 25.1 7.4 17 24
2007-04-04 10:17:00 51°34.493 2°32.693 28.2 8.2 20 25.7
2007-04-04 10:18:00 51°34.646 2°32.797 31.8 10.9 27 25.1
2007-04-04 10:19:00 51°34.812 2°32.929 34.5 11.3 26 25.1
2007-04-04 10:20:00 51°34.961 2°33.106 48.2 11.1 47 24.6
2007-04-04 10:21:01 51°35.074 2°33.32 57.9 8 59 22.2
2007-04-04 10:22:00 51°35.138 2°33.471 66.9 6.7 68 20.9
2007-04-04 10:23:00 51°35.191 2°33.59 56.6 4 56 21.7
2007-04-04 10:24:01 51°35.199 2°33.656 76.8 1.3 128 22.9
2007-04-04 10:25:00 51°35.172 2°33.649 118.3 2.9 200 22.2
2007-04-04 10:26:01 51°35.136 2°33.627 135.7 2 199 24.6
2007-04-04 10:27:00 51°35.1 2°33.605 132.3 2.7 187 22.9
2007-04-04 10:28:00 51°35.07 2°33.631 81.6 2 108 25
2007-04-04 10:29:00 51°35.081 2°33.787 78.8 8.6 83 26
2007-04-04 10:30:00 51°35.081 2°34.043 86.6 9.8 90 23.1
2007-04-04 10:31:00 51°35.075 2°34.321 88 11.4 91 32.2
2007-04-04 10:32:00 51°35.094 2°34.617 74 9.2 75 36
2007-04-04 10:33:01 51°35.139 2°34.795 52.4 5 51 36.5
2007-04-04 10:34:00 51°35.148 2°34.865 89 2.5 125 35.9
2007-04-04 10:35:01 51°35.132 2°34.902 60.3 0.7 114 36.2
2007-04-04 10:36:00 51°35.144 2°34.904 20.5 2 359 36.2
2007-04-04 10:37:01 51°35.17 2°34.931 59 2.5 77 36.2
2007-04-04 10:38:00 51°35.189 2°34.98 30.2 2.7 17 35.7
2007-04-04 10:39:00 51°35.21 2°35.016 59.3 1.6 94 35.7
2007-04-04 10:40:01 51°35.195 2°35.03 81.7 1.4 175 35.9
2007-04-04 10:41:00 51°35.17 2°35.022 88 1.7 196 35.8
2007-04-04 10:42:01 51°35.141 2°34.998 94.1 1.9 217 35.3
2007-04-04 10:43:00 51°35.107 2°34.99 103.7 2.6 153 36.1
2007-04-04 10:44:00 51°35.103 2°35.037 39.7 1.9 18 35.8
2007-04-04 10:45:00 51°35.131 2°34.964 297.6 5.3 267 35.9
2007-04-04 10:46:00 51°35.118 2°34.694 278 14.1 266 36.4
2007-04-04 10:47:00 51°35.107 2°34.317 276 14.2 263 34.5
2007-04-04 10:48:00 51°35.09 2°33.937 273.9 14.1 265 19.4
2007-04-04 10:49:01 51°35.076 2°33.553 274.5 13.9 269 23.6
2007-04-04 10:50:00 51°35.062 2°33.187 273.8 14 263 23.1
2007-04-04 10:51:01 51°35.048 2°32.807 274.2 14.1 269 30.1
2007-04-04 10:52:00 51°35.035 2°32.442 273.6 13.7 264 36.9
2007-04-04 10:53:01 51°35.008 2°32.061 273.6 13.7 259 41.7
2007-04-04 10:54:00 51°34.984 2°31.693 272.6 14 265 41.3
2007-04-04 10:55:00 51°34.953 2°31.325 272.6 14.1 259 40.7
2007-04-04 10:56:00 51°34.949 2°31.016 301.9 7.3 295 39.7
2007-04-04 10:57:00 51°35.002 2°30.957 17.8 2.4 9 39.4
2007-04-04 10:58:00 51°35.051 2°30.995 29 4.7 20 40.5
2007-04-04 10:59:00 51°35.115 2°31.084 31.2 5.5 16 40.3
2007-04-04 11:00:01 51°35.183 2°31.133 44.5 3.1 44 40.2
2007-04-04 11:01:00 51°35.224 2°31.177 38.4 2.5 41 39.7
2007-04-04 11:02:01 51°35.233 2°31.216 59.8 0.8 124 39.6
2007-04-04 11:03:00 51°35.222 2°31.219 55.7 1 184 38.3
2007-04-04 11:04:01 51°35.2 2°31.206 59.5 1.5 206 38.8
2007-04-04 11:05:01 51°35.173 2°31.182 62.4 2 212 41.3
2007-04-04 11:06:00 51°35.144 2°31.148 83.5 2.1 222 40.6
2007-04-04 11:07:01 51°35.115 2°31.11 99.1 2.4 217 40.7
2007-04-04 11:08:00 51°35.092 2°31.074 119.7 1.9 223 39.4
2007-04-04 11:09:01 51°35.07 2°31.042 140.6 1.6 217 40.3
2007-04-04 11:10:00 51°35.048 2°31.014 152.2 1.7 213 40.3
2007-04-04 11:11:01 51°35.022 2°30.988 151 1.6 207 40.3
2007-04-04 11:12:00 51°34.982 2°31.005 115.1 3.3 126 39.3
2007-04-04 11:13:01 51°34.99 2°31.068 36.3 3.2 32 39.8
2007-04-04 11:14:01 51°35.107 2°31.163 28.2 10.7 21 41.4
2007-04-04 11:15:01 51°35.289 2°31.256 22.3 11.8 21 40.8
2007-04-04 11:16:01 51°35.47 2°31.375 28.7 11.5 25 40.6
2007-04-04 11:17:00 51°35.642 2°31.502 28.2 11.4 24 40.3
2007-04-04 11:18:01 51°35.818 2°31.629 30 10.7 26 40.6
2007-04-04 11:19:01 51°35.929 2°31.728 33.1 5.4 27 41.3
2007-04-04 11:20:00 51°35.988 2°31.794 37.6 3.7 33 39.8
2007-04-04 11:21:01 51°36.044 2°31.839 39.9 4 45 36.8
2007-04-04 11:22:00 51°36.082 2°31.898 29.1 2.6 27 42.1
2007-04-04 11:23:01 51°36.1 2°31.926 43.4 0.2 133 39.1
2007-04-04 11:24:00 51°36.091 2°31.92 32.7 0.9 217 40.8
2007-04-04 11:25:01 51°36.074 2°31.903 17.4 1.5 218 41.8
2007-04-04 11:26:00 51°36.063 2°31.884 5.1 1.6 340 41.1
2007-04-04 11:27:01 51°36.188 2°31.89 12.4 11.3 10 38.4
2007-04-04 11:28:01 51°36.374 2°31.973 22 11.9 16 43
2007-04-04 11:29:01 51°36.562 2°32.068 22 11.9 20 40.7
2007-04-04 11:30:01 51°36.746 2°32.168 23.9 11.8 19 40.8
2007-04-04 11:31:01 51°36.875 2°32.263 30.4 5.9 30 42.3
2007-04-04 11:32:01 51°36.932 2°32.332 35.7 3.5 26 41.6
2007-04-04 11:33:00 51°36.97 2°32.378 46.4 2.3 57 41.4
2007-04-04 11:34:01 51°36.993 2°32.4 12.6 1.2 350 42.7
2007-04-04 11:35:00 51°36.993 2°32.379 345.7 1.3 250 42.3
2007-04-04 11:36:01 51°36.984 2°32.352 332.3 1.2 233 42.9
2007-04-04 11:37:01 51°36.971 2°32.326 329 1.3 230 42.2
2007-04-04 11:38:00 51°36.957 2°32.303 326.7 1.3 217 42.8
2007-04-04 11:39:01 51°36.938 2°32.284 319.3 1.1 205 42.3
2007-04-04 11:40:00 51°36.919 2°32.268 313.4 1.3 204 42
2007-04-04 11:41:01 51°36.9 2°32.252 309.5 1.4 204 41.8
2007-04-04 11:42:00 51°36.881 2°32.235 304.6 1.6 210 42.9
2007-04-04 11:43:01 51°36.87 2°32.206 314.8 2.3 286 42.2
2007-04-04 11:44:00 51°36.923 2°32.207 37.2 5.2 52 41.8
2007-04-04 11:45:01 51°36.985 2°32.408 65.6 7 52 43
2007-04-04 11:46:01 51°37.029 2°32.457 42.6 1.2 58 42.5
2007-04-04 11:47:01 51°37.024 2°32.469 67.3 0.9 161 42.3
2007-04-04 11:48:01 51°37.009 2°32.468 93.6 1 190 42.1
2007-04-04 11:49:01 51°36.992 2°32.458 121.2 1 195 4.6
2007-04-04 11:50:01 51°36.974 2°32.448 133.8 1.1 196 43
2007-04-04 11:51:01 51°36.957 2°32.435 141.5 1.4 206 42.1
2007-04-04 11:52:01 51°36.905 2°32.437 186.6 5.4 188 41.2
2007-04-04 11:53:00 51°36.867 2°32.302 291.5 6.6 298 42.6
2007-04-04 11:54:01 51°36.98 2°32.201 343.5 10.5 334 42.7
2007-04-04 11:55:01 51°37.158 2°32.064 341.1 12.2 334 40.4
2007-04-04 11:56:01 51°37.34 2°31.922 341.6 12 331 41
2007-04-04 11:57:01 51°37.526 2°31.787 341.5 12 338 40.9
2007-04-04 11:58:01 51°37.7 2°31.658 343.6 9.5 334 40.6
2007-04-04 11:59:01 51°37.792 2°31.668 37.7 4.1 45 41.3
2007-04-04 12:00:01 51°37.834 2°31.724 28.3 3.2 32 41.7
2007-04-04 12:01:01 51°37.879 2°31.781 50.8 3.4 49 42.2
2007-04-04 12:02:01 51°37.908 2°31.806 7.9 0.5 353 41.5
2007-04-04 12:03:01 51°37.907 2°31.798 350.3 0.6 233 41.8
2007-04-04 12:04:01 51°37.898 2°31.787 329.1 0.8 211 41.7
2007-04-04 12:05:00 51°37.886 2°31.778 306.3 0.8 201 42.1
2007-04-04 12:06:01 51°37.872 2°31.77 294.3 0.7 195 41.9
2007-04-04 12:07:00 51°37.857 2°31.764 293.7 1 195 42.1
2007-04-04 12:08:01 51°37.843 2°31.762 293.2 1 183 41.8
2007-04-04 12:09:01 51°37.828 2°31.761 290.9 0.9 187 41.8
2007-04-04 12:10:01 51°37.833 2°31.714 314.6 2.8 310 41.6
2007-04-04 12:11:01 51°37.903 2°31.672 348.9 7.8 342 42
2007-04-04 12:12:01 51°38.056 2°31.56 340.2 11 332 40.4
2007-04-04 12:13:01 51°38.221 2°31.444 340.7 10.6 338 39.5
2007-04-04 12:14:01 51°38.39 2°31.332 341.6 10.9 337 39.5
2007-04-04 12:15:01 51°38.55 2°31.229 343.2 8.1 343 38.8
2007-04-04 12:16:01 51°38.625 2°31.262 34 3.6 37 39
2007-04-04 12:17:01 51°38.684 2°31.338 33.1 5.2 32 38.6
2007-04-04 12:18:01 51°38.748 2°31.399 41.8 2.9 52 38.9
2007-04-04 12:19:01 51°38.758 2°31.441 59.8 0.9 118 38.9
2007-04-04 12:20:01 51°38.748 2°31.453 72.4 1 161 38.6
2007-04-04 12:21:01 51°38.735 2°31.455 90 0.8 183 38.2
2007-04-04 12:22:01 51°38.725 2°31.471 96.2 1.9 113 38.6
2007-04-04 12:23:00 51°38.728 2°31.581 82.3 8.8 87 38.8
2007-04-04 12:24:01 51°38.709 2°31.912 98.8 13.3 102 42.5
2007-04-04 12:25:00 51°38.677 2°32.263 100.3 13.6 101 42.7
2007-04-04 12:26:01 51°38.661 2°32.575 83.9 8.1 73 43.4
2007-04-04 12:27:01 51°38.71 2°32.712 47.1 4.7 47 44.7
2007-04-04 12:28:01 51°38.746 2°32.803 61.2 3.7 71 44.1
2007-04-04 12:29:01 51°38.753 2°32.859 76.5 0.8 105 45.1
2007-04-04 12:30:01 51°38.744 2°32.877 97 1 154 -999
2007-04-04 12:31:01 51°38.733 2°32.889 115.3 0.8 148 44.1
2007-04-04 12:32:00 51°38.723 2°32.898 130.7 0.7 138 44.4
2007-04-04 12:33:01 51°38.714 2°32.904 138.3 0.5 142 44.4
2007-04-04 12:34:01 51°38.706 2°32.908 135.3 0.6 158 44.4
2007-04-04 12:35:01 51°38.699 2°32.913 135.9 0.5 177 44.3
2007-04-04 12:36:01 51°38.692 2°32.916 137.9 0.5 156 44.5
2007-04-04 12:37:01 51°38.684 2°32.92 135.4 0.6 171 44.3
2007-04-04 12:38:01 51°38.673 2°32.941 116.9 2 121 44
2007-04-04 12:39:01 51°38.682 2°33.019 55.9 3.7 50 44.9
2007-04-04 12:40:01 51°38.772 2°33.042 3.4 9.7 4 44.4
2007-04-04 12:41:01 51°38.97 2°33.123 21.4 13.2 19 43.4
2007-04-04 12:42:01 51°39.173 2°33.246 23.4 12.7 20 43.3
2007-04-04 12:43:01 51°39.374 2°33.368 23.1 12.2 21 42.5
2007-04-04 12:44:01 51°39.508 2°33.448 20.8 6 21 42.2
2007-04-04 12:45:01 51°39.579 2°33.497 22.9 3.7 30 45.2
2007-04-04 12:46:01 51°39.621 2°33.544 27.2 2.6 29 44.2
2007-04-04 12:47:01 51°39.652 2°33.555 351.1 1.1 4 42.4
2007-04-04 12:48:01 51°39.659 2°33.556 332.1 0.4 28 42.5
2007-04-04 12:49:01 51°39.661 2°33.558 324.6 0.1 110 41.8
2007-04-04 12:50:01 51°39.662 2°33.56 317.7 0.2 203 41.3
2007-04-04 12:51:01 51°39.677 2°33.55 333.2 2.3 344 41
2007-04-04 12:52:01 51°39.754 2°33.567 10 8.4 10 44.5
2007-04-04 12:53:01 51°39.945 2°33.658 26.1 13.1 24 45
2007-04-04 12:54:01 51°40.143 2°33.807 28.6 13.3 26 44
2007-04-04 12:55:01 51°40.336 2°33.957 28.3 10.7 26 42
2007-04-04 12:56:01 51°40.444 2°34.049 27.5 5.6 31 41.2
2007-04-04 12:57:01 51°40.501 2°34.121 32.3 3.1 33 40.3
2007-04-04 12:58:01 51°40.52 2°34.146 23.9 0.6 60 39.1
2007-04-04 12:59:01 51°40.52 2°34.156 23.1 0.6 130 39.7
2007-04-04 13:00:01 51°40.509 2°34.161 9.5 0.9 173 39.9
2007-04-04 13:01:01 51°40.494 2°34.173 347.2 1.2 143 40.3
2007-04-04 13:02:01 51°40.494 2°34.173 301.8 1.2 288 39.6
2007-04-04 13:03:01 51°40.474 2°34.118 214.9 3.9 200 41.2
2007-04-04 13:04:01 51°40.335 2°34.033 206.1 12 203 41.2
2007-04-04 13:05:01 51°40.146 2°33.902 205.6 13.1 207 42.6
2007-04-04 13:06:01 51°39.956 2°33.766 208.3 12.2 207 39.7
2007-04-04 13:07:01 51°39.767 2°33.632 207.8 12.4 207 46.2
2007-04-04 13:08:01 51°39.579 2°33.503 207.5 13 198 44.8
2007-04-04 13:09:01 51°39.389 2°33.371 205.9 12.5 204 42.9
2007-04-04 13:10:01 51°39.194 2°33.243 205.9 12.9 202 43.2
2007-04-04 13:11:01 51°39.002 2°33.122 206.4 12 202 42.2
2007-04-04 13:12:01 51°38.81 2°33.005 205.1 12.8 200 40.8
2007-04-04 13:13:01 51°38.616 2°32.881 209 12.2 198 44.3
2007-04-04 13:14:01 51°38.415 2°32.784 202.7 12.4 190 43.1
2007-04-04 13:15:01 51°38.219 2°32.685 206.3 12.3 200 44.8
2007-04-04 13:16:01 51°38.027 2°32.577 205.4 11.6 197 43.7
2007-04-04 13:17:01 51°37.832 2°32.473 202.8 11.9 202 42.8
2007-04-04 13:18:01 51°37.636 2°32.369 202.5 12.2 200 41.9
2007-04-04 13:19:01 51°37.437 2°32.265 202.6 12.6 201 42.8
2007-04-04 13:20:01 51°37.242 2°32.162 203.9 11.5 197 41.6
2007-04-04 13:21:01 51°37.048 2°32.045 204.3 12 205 41.9
2007-04-04 13:22:01 51°36.854 2°31.947 202.3 12.5 195 40.9
2007-04-04 13:23:01 51°36.661 2°31.844 202.5 12.3 201 42.1
2007-04-04 13:24:01 51°36.47 2°31.741 205.1 12.2 199 41.6
2007-04-04 13:25:01 51°36.274 2°31.638 200.8 12.5 201 39.5
2007-04-04 13:26:01 51°36.078 2°31.533 204 12.4 194 41.5
2007-04-04 13:27:01 51°35.884 2°31.418 202.7 11.9 202 41.7
2007-04-04 13:28:01 51°35.689 2°31.308 204.1 12.2 194 41.7
2007-04-04 13:29:01 51°35.495 2°31.199 203.1 12.2 200 41.6
2007-04-04 13:30:01 51°35.302 2°31.087 200.3 12.9 203 41.8
2007-04-04 13:31:01 51°35.11 2°30.974 203.7 12.6 202 40.3
2007-04-04 13:32:01 51°34.914 2°30.876 200.4 13.4 195 40.8
2007-04-04 13:33:01 51°34.725 2°30.759 209.3 11.8 203 41.4
2007-04-04 13:34:01 51°34.568 2°30.569 225.1 10.9 224 42.6
2007-04-04 13:35:01 51°34.454 2°30.468 218.7 6.7 219 43.4
2007-04-04 13:36:01 51°34.377 2°30.395 217.5 4.3 205 43.7
2007-04-04 13:37:01 51°34.348 2°30.334 240.2 2.3 229 43.5
2007-04-04 13:38:01 51°34.34 2°30.315 265.6 0.3 46 43.1
2007-04-04 13:39:01 51°34.348 2°30.322 284.8 0.9 31 43.4
2007-04-04 13:40:01 51°34.355 2°30.334 291.8 0.8 61 43.7
2007-04-04 13:41:01 51°34.359 2°30.351 293.6 0.7 81 43.4
2007-04-04 13:42:01 51°34.361 2°30.371 287.7 0.8 72 43.6
2007-04-04 13:43:01 51°34.363 2°30.389 284.8 0.4 57 43.8
2007-04-04 13:44:01 51°34.352 2°30.339 239.8 5.2 242 43.3
2007-04-04 13:45:01 51°34.26 2°30.126 238.2 11.9 228 42.3
2007-04-04 13:46:01 51°34.122 2°29.899 221.4 12.1 220 41.8
2007-04-04 13:47:01 51°33.949 2°29.743 211 11.9 203 41.4
2007-04-04 13:48:01 51°33.76 2°29.632 207.4 12.8 200 40.5
2007-04-04 13:49:01 51°33.624 2°29.548 208.9 6.8 190 40.6
2007-04-04 13:50:01 51°33.526 2°29.514 204.8 5.7 196 41
2007-04-04 13:51:01 51°33.48 2°29.462 233.7 0.9 225 40.8
2007-04-04 13:52:01 51°33.473 2°29.47 211.5 0.8 171 40.8
2007-04-04 13:53:01 51°33.461 2°29.479 214 0.7 167 41.7
2007-04-04 13:54:01 51°33.449 2°29.482 224.2 0.8 164 41.1
2007-04-04 13:55:01 51°33.441 2°29.484 232.2 0.6 165 40.9
2007-04-04 13:56:01 51°33.438 2°29.483 246.9 0.3 327 40.8
2007-04-04 13:57:01 51°33.443 2°29.483 267 0.5 2 41
2007-04-04 13:58:01 51°33.438 2°29.456 234.3 2.4 211 41.2
2007-04-04 13:59:01 51°33.35 2°29.395 217.2 9.1 213 40.8
2007-04-04 14:00:01 51°33.212 2°29.191 226.9 11.9 216 41.3
2007-04-04 14:01:01 51°33.062 2°28.983 226 11.6 217 40.6
2007-04-04 14:02:01 51°32.913 2°28.79 220.4 11.3 223 40.1
2007-04-04 14:03:01 51°32.783 2°28.65 219.2 6.8 209 41.3
2007-04-04 14:04:01 51°32.722 2°28.571 223 3.5 202 40.8
2007-04-04 14:05:01 51°32.684 2°28.548 228 1.5 228 41
2007-04-04 14:06:01 51°32.679 2°28.528 254.7 0.3 248 41
2007-04-04 14:07:01 51°32.687 2°28.521 275 0.6 344 40.9
2007-04-04 14:08:01 51°32.701 2°28.526 288.1 0.7 18 41.5
2007-04-04 14:09:01 51°32.716 2°28.538 293.4 1 36 40.5
2007-04-04 14:10:01 51°32.729 2°28.557 296.4 1.1 48 40.7
2007-04-04 14:11:01 51°32.739 2°28.579 293.9 0.7 80 41.1
2007-04-04 14:12:01 51°32.755 2°28.582 292 2.2 318 40.9
2007-04-04 14:13:01 51°32.739 2°28.54 210.7 3 175 40.5
2007-04-04 14:14:01 51°32.699 2°28.625 122.4 5.3 101 41.4
2007-04-04 14:15:01 51°32.684 2°28.869 104 12.6 92 40.9
2007-04-04 14:16:01 51°32.693 2°29.239 94.2 14.1 86 41.3
2007-04-04 14:17:01 51°32.74 2°29.607 81.6 14 74 40.1
2007-04-04 14:18:01 51°32.803 2°29.973 82.1 14.1 74 37.8
2007-04-04 14:19:01 51°32.861 2°30.339 81.6 14 76 33.6
2007-04-04 14:20:01 51°32.916 2°30.699 81.3 14 78 28.9
2007-04-04 14:21:01 51°32.833 2°30.908 162.2 8.6 156 25.7
2007-04-04 14:22:01 51°32.737 2°31.043 163.6 5.4 152 23.8
2007-04-04 14:23:01 51°32.675 2°31.061 185.2 3 160 24
2007-04-04 14:24:01 51°32.656 2°31.083 190.3 0.7 109 23
2007-04-04 14:25:01 51°32.649 2°31.103 182.2 0.9 117 23.2
2007-04-04 14:26:01 51°32.638 2°31.129 167.4 1.5 116 23.9
2007-04-04 14:27:01 51°32.609 2°31.158 186.5 2.9 175 24.4
2007-04-04 14:28:01 51°32.554 2°31.084 231.3 7 226 27.3
2007-04-04 14:29:01 51°32.437 2°30.892 230.3 11.6 223 24.9
2007-04-04 14:30:01 51°32.301 2°30.658 230.2 11.9 226 24.5
2007-04-04 14:31:01 51°32.165 2°30.424 229.3 12.5 229 24.3
2007-04-04 14:32:01 51°32.027 2°30.192 231.3 12.3 224 23.8
2007-04-04 14:33:01 51°31.907 2°29.966 235.1 9 225 22.3
2007-04-04 14:34:01 51°31.844 2°29.795 254.4 5.3 253 21.4
2007-04-04 14:35:01 51°31.805 2°29.725 225.7 3.3 217 20.5
2007-04-04 14:36:01 51°31.788 2°29.656 245.3 2.3 237 22.8
2007-04-04 14:37:01 51°31.759 2°29.612 241.2 2.1 244 20.4
2007-04-04 14:38:01 51°31.758 2°29.589 247.5 0.1 252 22.1
2007-04-04 14:39:01 51°31.762 2°29.582 260.3 0.4 347 21.9
2007-04-04 14:40:01 51°31.773 2°29.579 279.5 1.4 342 20.6
2007-04-04 14:41:01 51°31.808 2°29.552 325.8 3.5 345 23
2007-04-04 14:42:01 51°31.87 2°29.563 20.7 4.4 27 20.6
2007-04-04 14:43:01 51°31.904 2°29.662 104 4.2 93 21.5
2007-04-04 14:44:01 51°31.849 2°29.816 132.8 9.9 125 21.2
2007-04-04 14:45:01 51°31.741 2°30.089 131.4 13.1 121 22.9
2007-04-04 14:46:01 51°31.618 2°30.389 131.1 13.4 127 25.7
2007-04-04 14:47:01 51°31.492 2°30.684 130.7 13.5 129 30.1
2007-04-04 14:48:01 51°31.369 2°30.981 133.1 13.3 122 37.3
2007-04-04 14:49:01 51°31.245 2°31.27 134.8 13.3 126 37
2007-04-04 14:50:01 51°31.122 2°31.565 132.6 13.2 126 38.5
2007-04-04 14:51:01 51°30.993 2°31.813 158.7 9.5 158 37
2007-04-04 14:52:01 51°30.872 2°31.812 179.8 6.6 163 36.8
2007-04-04 14:53:01 51°30.803 2°31.815 211.3 2.7 201 36.8
2007-04-04 14:54:01 51°30.766 2°31.783 213.7 2.7 200 37.1
2007-04-04 14:55:01 51°30.727 2°31.752 216.4 2.2 196 37.8
2007-04-04 14:56:01 51°30.712 2°31.745 232.4 0.5 236 37.4
2007-04-04 14:57:01 51°30.712 2°31.736 247.2 0.5 306 37.6
2007-04-04 14:58:01 51°30.717 2°31.732 262 0.6 352 37.6
2007-04-04 14:59:01 51°30.726 2°31.733 275 0.6 11 37.2
2007-04-04 15:00:01 51°30.739 2°31.739 290.9 0.7 30 37.6
2007-04-04 15:01:01 51°30.749 2°31.754 297.9 0.9 53 37.7
2007-04-04 15:02:01 51°30.762 2°31.752 284.6 1.5 319 37.7
2007-04-04 15:03:02 51°30.752 2°31.713 220.6 2.5 205 38.2
2007-04-04 15:04:02 51°30.695 2°31.771 153.7 7 137 37.8
2007-04-04 15:05:02 51°30.56 2°31.935 155.6 12.7 138 36.3
2007-04-04 15:06:02 51°30.409 2°32.167 141.2 12.8 131 34.7
2007-04-04 15:07:02 51°30.277 2°32.438 136.7 13.4 125 31.2
2007-04-04 15:08:02 51°30.155 2°32.727 134 13.1 121 26.5
2007-04-04 15:09:02 51°30.032 2°33.018 134 13.1 128 25.5
2007-04-04 15:10:02 51°29.9 2°33.304 135.6 13.3 127 21.2
2007-04-04 15:11:02 51°29.767 2°33.598 135 13.3 125 17
2007-04-04 15:12:02 51°29.631 2°33.891 135.9 14 123 23.5
2007-04-04 15:13:02 51°29.49 2°34.173 134.4 13.4 133 37.9
2007-04-04 15:14:02 51°29.352 2°34.45 135.2 13.3 130 39.1
2007-04-04 15:15:02 51°29.22 2°34.727 137.2 13.2 119 40.7
2007-04-04 15:16:01 51°29.089 2°34.992 134.8 13.2 126 39.1
2007-04-04 15:17:01 51°28.957 2°35.272 133.1 12.9 128 36.9
2007-04-04 15:18:01 51°28.823 2°35.548 135.5 13 128 36.3
2007-04-04 15:19:01 51°28.695 2°35.831 135.6 13.1 118 31.8
2007-04-04 15:20:01 51°28.565 2°36.118 132.9 13.1 127 28.7
2007-04-04 15:21:01 51°28.427 2°36.397 136.9 13.5 128 26.4
2007-04-04 15:22:01 51°28.286 2°36.673 137 13.1 130 37.6
2007-04-04 15:23:01 51°28.143 2°36.948 139.7 13.9 125 38.3